Time;durP1;ratioP1;P1;durP2;ratioP2;P2;SDS_P1;SDS_P2;PMS_P1;PMS_P2;Temp;Humidity;BMP_temperature;BMP_pressure;BME280_temperature;BME280_humidity;BME280_pressure;Samples;Min_cycle;Max_cycle;Signal;HPM_P1;HPM_P2
2021/05/17 00:00:32;;;;;;;11.85;5.38;;;;;;;14.01;63.14;98849.78;5011387;28;20034;-72
2021/05/17 00:03:00;;;;;;;6.90;4.47;;;;;;;13.89;63.93;98857.19;5011462;28;20037;-72
2021/05/17 00:05:26;;;;;;;5.78;4.60;;;;;;;14.15;63.34;98850.03;4996302;28;20029;-72
2021/05/17 00:07:52;;;;;;;5.00;4.47;;;;;;;14.11;63.59;98843.50;4994438;28;20499;-72
2021/05/17 00:10:19;;;;;;;6.38;4.60;;;;;;;14.30;62.36;98844.63;5011837;28;20085;-72
2021/05/17 00:12:44;;;;;;;8.20;4.72;;;;;;;14.19;62.85;98838.84;5011868;28;20120;-70
2021/05/17 00:15:16;;;;;;;8.60;4.82;;;;;;;14.00;63.69;98834.09;5011755;28;20109;-72
2021/05/17 00:17:43;;;;;;;13.25;4.50;;;;;;;14.12;63.46;98836.72;4994446;28;20100;-69
2021/05/17 00:20:11;;;;;;;9.38;4.88;;;;;;;13.96;63.69;98830.38;4994209;28;20507;-72
2021/05/17 00:22:37;;;;;;;8.05;5.25;;;;;;;13.85;63.70;98835.81;4994178;28;20037;-69
2021/05/17 00:25:03;;;;;;;9.90;4.13;;;;;;;13.90;63.74;98838.31;5011600;28;20049;-69
2021/05/17 00:27:29;;;;;;;6.25;5.13;;;;;;;13.97;63.21;98840.44;5011771;28;20049;-72
2021/05/17 00:29:54;;;;;;;4.47;3.70;;;;;;;14.15;62.75;98841.59;5011473;28;20029;-69
2021/05/17 00:32:20;;;;;;;7.60;4.00;;;;;;;14.11;62.28;98843.50;5012139;28;20033;-69
2021/05/17 00:34:46;;;;;;;4.10;3.58;;;;;;;14.08;62.32;98835.81;5011480;28;20113;-69
2021/05/17 00:37:13;;;;;;;8.48;4.47;;;;;;;14.04;62.94;98840.56;5011745;28;20506;-70
2021/05/17 00:39:39;;;;;;;9.15;5.35;;;;;;;14.07;62.99;98839.81;5011340;28;20030;-70
2021/05/17 00:42:05;;;;;;;6.32;3.60;;;;;;;13.99;63.22;98843.69;5011808;28;20037;-72
2021/05/17 00:44:31;;;;;;;7.05;4.32;;;;;;;13.80;63.24;98831.31;5011465;28;20057;-69
2021/05/17 00:46:56;;;;;;;4.88;4.10;;;;;;;14.08;62.43;98835.81;4993731;28;20033;-69
2021/05/17 00:49:22;;;;;;;7.32;3.95;;;;;;;14.20;61.92;98828.38;5011384;28;20041;-72
2021/05/17 00:51:48;;;;;;;6.78;4.30;;;;;;;14.23;62.05;98825.66;4992159;28;20034;-72
2021/05/17 00:54:14;;;;;;;4.85;3.97;;;;;;;14.15;62.58;98840.75;5011045;28;20065;-70
2021/05/17 00:56:41;;;;;;;8.82;4.72;;;;;;;14.21;61.64;98839.28;4993505;28;20088;-69
2021/05/17 00:59:07;;;;;;;6.38;4.78;;;;;;;13.98;62.05;98837.25;5011076;28;20037;-72
2021/05/17 01:01:32;;;;;;;6.55;5.28;;;;;;;13.96;62.59;98836.00;5011075;28;20057;-72
2021/05/17 01:03:58;;;;;;;6.20;4.47;;;;;;;13.85;62.81;98836.63;4993322;28;20040;-72
2021/05/17 01:06:25;;;;;;;9.55;4.57;;;;;;;14.02;62.67;98840.94;5011274;28;20034;-72
2021/05/17 01:09:05;;;;;;;5.15;4.22;;;;;;;13.96;61.76;98834.03;4993076;28;20396;-73
2021/05/17 01:11:31;;;;;;;5.20;4.70;;;;;;;13.65;62.36;98844.25;5011198;28;20044;-69
2021/05/17 01:13:59;;;;;;;9.68;4.72;;;;;;;13.52;63.46;98845.59;4992815;28;20475;-73
2021/05/17 01:16:26;;;;;;;6.90;4.88;;;;;;;13.61;63.20;98849.00;5010978;28;20077;-72
2021/05/17 01:18:52;;;;;;;9.80;4.57;;;;;;;13.50;62.72;98851.59;5010629;28;20464;-72
2021/05/17 01:21:20;;;;;;;6.97;4.93;;;;;;;13.46;63.15;98848.72;5010739;28;20515;-72
2021/05/17 01:23:55;;;;;;;6.93;4.90;;;;;;;13.43;63.80;98848.63;5010605;28;20121;-70
2021/05/17 01:26:22;;;;;;;5.90;4.72;;;;;;;13.38;64.32;98844.09;5010857;28;20030;-72
2021/05/17 01:28:49;;;;;;;5.18;4.68;;;;;;;13.58;63.20;98855.38;4993084;28;20092;-73
2021/05/17 01:31:15;;;;;;;6.82;5.05;;;;;;;13.42;63.20;98849.81;5010736;28;20107;-69
2021/05/17 01:33:43;;;;;;;6.28;5.05;;;;;;;13.39;63.01;98844.91;5010738;28;20022;-72
2021/05/17 01:36:10;;;;;;;12.13;4.65;;;;;;;13.43;62.68;98834.56;5010539;28;20040;-69
2021/05/17 01:38:41;;;;;;;10.57;4.88;;;;;;;13.24;62.67;98843.81;5010691;28;20044;-72
2021/05/17 01:41:12;;;;;;;6.50;4.70;;;;;;;13.18;63.33;98844.09;4992689;28;20404;-69
2021/05/17 01:43:44;;;;;;;7.57;4.68;;;;;;;13.18;63.15;98849.69;4992866;28;20103;-72
2021/05/17 01:46:14;;;;;;;5.50;4.47;;;;;;;13.17;63.20;98853.69;4992514;28;20483;-72
2021/05/17 01:48:42;;;;;;;8.30;5.40;;;;;;;13.14;63.33;98854.44;5010530;28;20117;-72
2021/05/17 01:51:15;;;;;;;8.60;5.75;;;;;;;13.13;63.94;98852.81;4992588;28;20804;-69
2021/05/17 01:53:43;;;;;;;7.70;5.82;;;;;;;13.15;63.97;98852.41;5010529;28;20113;-69
2021/05/17 01:56:10;;;;;;;11.02;6.00;;;;;;;13.09;64.19;98854.69;5010222;28;20030;-72
2021/05/17 01:58:36;;;;;;;7.90;6.38;;;;;;;12.69;65.43;98853.81;4992759;28;20488;-69
2021/05/17 02:01:11;;;;;;;10.50;6.40;;;;;;;12.74;66.20;98870.38;4992401;28;20045;-72
2021/05/17 02:03:39;;;;;;;9.98;5.70;;;;;;;12.80;65.20;98865.28;5010301;28;20041;-72
2021/05/17 02:06:08;;;;;;;12.57;6.65;;;;;;;12.78;65.48;98868.44;5010526;28;20091;-72
2021/05/17 02:08:43;;;;;;;13.57;6.60;;;;;;;12.77;65.50;98866.81;5010181;28;20097;-69
2021/05/17 02:11:17;;;;;;;11.07;6.22;;;;;;;12.83;65.06;98860.94;5010383;28;20121;-72
2021/05/17 02:13:43;;;;;;;10.85;6.65;;;;;;;12.77;65.23;98858.41;5010250;28;20021;-69
2021/05/17 02:16:12;;;;;;;13.75;6.28;;;;;;;12.88;65.25;98855.88;4992274;28;20506;-69
2021/05/17 02:18:40;;;;;;;13.70;5.68;;;;;;;13.00;64.96;98859.72;5010022;28;20517;-72
2021/05/17 02:21:06;;;;;;;15.50;6.20;;;;;;;12.97;64.39;98864.09;4992463;28;20046;-72
2021/05/17 02:23:32;;;;;;;7.78;5.63;;;;;;;12.81;65.43;98863.31;5010022;28;20034;-69
2021/05/17 02:25:59;;;;;;;11.88;5.95;;;;;;;12.91;65.12;98848.69;5013249;28;20041;-72
2021/05/17 02:28:25;;;;;;;10.95;6.15;;;;;;;13.02;64.68;98855.34;4996445;28;20633;-70
2021/05/17 02:30:50;;;;;;;11.25;5.90;;;;;;;13.06;64.38;98842.25;5013562;28;20038;-69
2021/05/17 02:33:16;;;;;;;9.27;5.78;;;;;;;13.14;64.01;98831.13;5013850;28;20113;-72
2021/05/17 02:35:42;;;;;;;8.73;5.57;;;;;;;13.03;64.49;98831.75;5013644;28;20407;-73
2021/05/17 02:38:09;;;;;;;11.18;6.07;;;;;;;13.08;65.05;98829.81;5013790;28;20053;-73
2021/05/17 02:40:35;;;;;;;13.52;6.55;;;;;;;12.87;65.55;98834.59;5013587;28;20563;-72
2021/05/17 02:43:28;;;;;;;9.95;5.47;;;;;;;13.13;64.75;98840.75;5013728;28;20018;-72
2021/05/17 02:45:54;;;;;;;10.45;6.28;;;;;;;12.88;64.47;98844.66;5010474;28;20041;-72
2021/05/17 02:48:27;;;;;;;11.13;5.60;;;;;;;12.76;64.43;98837.13;4996126;28;20029;-72
2021/05/17 02:50:52;;;;;;;8.30;5.18;;;;;;;12.66;64.76;98836.91;5013454;28;20504;-69
2021/05/17 02:53:37;;;;;;;10.02;5.43;;;;;;;12.39;66.10;98834.66;4996034;28;20040;-73
2021/05/17 02:56:08;;;;;;;6.00;5.07;;;;;;;12.45;65.62;98836.03;4995722;28;20037;-70
2021/05/17 02:58:37;;;;;;;12.85;6.32;;;;;;;12.35;66.33;98831.75;4995609;28;20479;-73
2021/05/17 03:01:12;;;;;;;8.95;6.78;;;;;;;12.43;65.47;98841.19;5013342;28;20466;-69
2021/05/17 03:03:52;;;;;;;7.13;5.53;;;;;;;12.12;67.49;98834.41;5013175;28;20503;-69
2021/05/17 03:06:30;;;;;;;7.80;5.88;;;;;;;12.23;66.53;98842.28;5013525;28;20030;-73
2021/05/17 03:09:01;;;;;;;10.18;6.55;;;;;;;12.36;66.29;98838.19;4995645;28;20121;-73
2021/05/17 03:11:28;;;;;;;7.53;6.40;;;;;;;12.41;65.23;98839.91;4995481;28;20087;-69
2021/05/17 03:13:57;;;;;;;10.20;6.40;;;;;;;12.48;65.01;98843.72;5012974;28;20420;-69
2021/05/17 03:16:24;;;;;;;11.73;6.93;;;;;;;12.46;65.33;98843.25;5012948;28;20204;-69
2021/05/17 03:18:52;;;;;;;6.93;6.05;;;;;;;12.47;65.45;98841.25;5012913;28;20027;-73
2021/05/17 03:21:20;;;;;;;9.55;6.60;;;;;;;12.32;66.08;98852.13;5012873;28;20088;-73
2021/05/17 03:23:48;;;;;;;11.20;5.43;;;;;;;12.15;66.70;98858.09;4995247;28;20064;-69
2021/05/17 03:26:16;;;;;;;10.63;6.10;;;;;;;12.15;66.83;98864.50;4995539;28;20117;-69
2021/05/17 03:28:41;;;;;;;19.92;7.38;;;;;;;11.97;67.42;98871.63;4995479;28;20033;-69
2021/05/17 03:31:07;;;;;;;9.30;6.35;;;;;;;11.97;66.91;98874.41;5012757;28;20500;-69
2021/05/17 03:33:32;;;;;;;11.45;5.88;;;;;;;11.98;66.93;98878.84;5012892;28;20029;-69
2021/05/17 03:35:58;;;;;;;11.93;6.72;;;;;;;11.97;67.00;98874.41;5012319;28;20034;-69
2021/05/17 03:38:23;;;;;;;34.13;8.15;;;;;;;11.84;67.32;98882.88;5012748;28;20052;-72
2021/05/17 03:40:49;;;;;;;20.45;7.07;;;;;;;11.80;67.38;98879.16;4994733;28;20412;-69
2021/05/17 03:43:14;;;;;;;15.25;8.07;;;;;;;11.79;68.14;98878.34;4994989;28;20034;-69
2021/05/17 03:45:40;;;;;;;13.05;8.35;;;;;;;11.99;67.97;98892.47;5012257;28;20109;-69
2021/05/17 03:48:06;;;;;;;12.10;8.75;;;;;;;12.06;67.64;98892.72;5012481;28;20044;-70
2021/05/17 03:50:32;;;;;;;10.40;7.63;;;;;;;12.05;67.22;98887.47;4994729;28;20026;-72
2021/05/17 03:52:57;;;;;;;18.77;8.80;;;;;;;12.09;67.42;98891.19;4994613;28;20480;-72
2021/05/17 03:55:22;;;;;;;14.30;8.40;;;;;;;12.14;66.57;98887.31;4993620;28;20045;-69
2021/05/17 03:57:48;;;;;;;9.27;7.50;;;;;;;12.17;67.09;98898.59;5010058;28;20034;-69
2021/05/17 04:00:14;;;;;;;9.77;7.55;;;;;;;11.98;67.96;98901.25;4992452;28;20029;-72
2021/05/17 04:02:42;;;;;;;9.18;6.53;;;;;;;11.97;67.60;98902.44;5010237;28;20034;-70
2021/05/17 04:08:07;;;;;;;20.98;7.05;;;;;;;12.05;68.34;98907.06;5010157;28;20034;-72
2021/05/17 04:13:27;;;;;;;13.07;6.80;;;;;;;12.21;68.31;98916.34;5011969;28;20172;-69
2021/05/17 04:15:53;;;;;;;9.32;7.05;;;;;;;12.24;68.42;98925.22;4993643;28;20037;-69
2021/05/17 04:18:20;;;;;;;10.63;7.72;;;;;;;12.32;68.20;98925.03;5003394;28;20045;-69
2021/05/17 04:20:47;;;;;;;12.18;6.80;;;;;;;12.32;67.84;98924.22;4996040;28;20113;-71
2021/05/17 04:23:13;;;;;;;9.25;7.85;;;;;;;12.18;68.49;98925.47;4993966;28;20514;-71
2021/05/17 04:25:39;;;;;;;14.50;7.78;;;;;;;12.09;69.37;98938.84;5011610;28;20030;-73
2021/05/17 04:28:05;;;;;;;37.58;9.35;;;;;;;12.31;69.19;98933.81;5011597;28;20562;-70
2021/05/17 04:30:31;;;;;;;15.23;6.97;;;;;;;12.49;68.79;98932.28;4993795;28;20060;-74
2021/05/17 04:32:57;;;;;;;12.40;7.82;;;;;;;12.56;69.21;98931.66;4993920;28;20056;-74
2021/05/17 04:35:23;;;;;;;10.82;6.82;;;;;;;12.69;68.99;98926.78;5010978;28;20535;-74
2021/05/17 04:37:48;;;;;;;19.90;6.32;;;;;;;12.75;68.73;98936.53;5011561;28;20459;-66
2021/05/17 04:40:14;;;;;;;11.88;8.30;;;;;;;12.85;68.53;98931.56;5011229;28;20117;-69
2021/05/17 04:42:42;;;;;;;11.25;6.93;;;;;;;13.09;67.44;98927.69;4993764;28;20033;-73
2021/05/17 04:45:08;;;;;;;6.88;6.18;;;;;;;13.14;67.62;98921.00;5011133;28;20034;-71
2021/05/17 04:47:34;;;;;;;8.85;6.07;;;;;;;13.34;67.02;98917.03;4992947;28;20057;-76
2021/05/17 04:49:59;;;;;;;11.88;7.68;;;;;;;13.46;67.23;98918.13;5011108;28;20072;-72
2021/05/17 04:52:24;;;;;;;13.93;7.90;;;;;;;13.50;67.78;98907.78;5011728;28;20030;-72
2021/05/17 04:54:50;;;;;;;10.48;7.25;;;;;;;13.56;67.34;98917.56;5011201;28;20101;-76
2021/05/17 04:57:15;;;;;;;10.30;6.65;;;;;;;13.71;67.78;98913.06;5011452;28;20041;-81
2021/05/17 04:59:41;;;;;;;8.63;6.32;;;;;;;13.96;66.81;98909.94;5010990;28;20026;-76
2021/05/17 05:02:06;;;;;;;15.13;6.80;;;;;;;14.09;66.95;98912.56;5011444;28;20033;-74
2021/05/17 05:04:32;;;;;;;15.30;7.55;;;;;;;14.27;65.76;98901.66;5011140;28;20037;-73
2021/05/17 05:06:58;;;;;;;17.05;9.80;;;;;;;14.39;65.63;98895.84;5011210;28;20040;-76
2021/05/17 05:09:24;;;;;;;19.77;10.85;;;;;;;14.52;65.92;98899.25;5011109;28;20033;-72
2021/05/17 05:11:49;;;;;;;36.33;15.77;;;;;;;14.60;65.72;98886.94;5011084;28;20037;-73
2021/05/17 05:14:15;;;;;;;34.20;15.60;;;;;;;14.66;65.87;98881.81;5010832;28;20026;-72
2021/05/17 05:16:41;;;;;;;16.10;10.15;;;;;;;14.92;63.98;98876.63;5010426;28;20085;-73
2021/05/17 05:19:06;;;;;;;20.60;9.27;;;;;;;15.04;63.28;98872.75;4993344;28;20064;-74
2021/05/17 05:21:33;;;;;;;7.68;5.90;;;;;;;15.25;62.82;98867.44;5010311;28;20037;-74
2021/05/17 05:23:59;;;;;;;8.70;6.68;;;;;;;15.36;61.58;98861.94;4991533;28;20021;-74
2021/05/17 05:29:09;;;;;;;5.80;5.07;;;;;;;15.58;59.79;98863.03;5008422;28;20029;-75
2021/05/17 05:31:48;;;;;;;5.80;3.97;;;;;;;15.70;59.96;98855.50;5008926;28;20034;-75
2021/05/17 05:34:13;;;;;;;8.18;4.32;;;;;;;15.83;60.24;98856.88;5008576;28;20024;-74
2021/05/17 05:36:38;;;;;;;17.83;5.00;;;;;;;16.09;59.57;98866.44;5008798;28;20472;-69
2021/05/17 05:39:04;;;;;;;8.48;3.70;;;;;;;16.40;58.59;98861.47;5009570;28;20519;-78
2021/05/17 05:41:30;;;;;;;9.05;4.15;;;;;;;16.42;59.08;98864.75;5010769;28;20029;-70
2021/05/17 05:43:56;;;;;;;5.22;3.55;;;;;;;16.62;58.62;98866.50;5010156;28;20455;-73
2021/05/17 05:46:22;;;;;;;4.75;3.53;;;;;;;16.69;58.92;98869.38;5010720;28;20551;-74
2021/05/17 05:48:48;;;;;;;6.65;3.25;;;;;;;16.92;58.12;98857.84;5010264;28;20026;-73
2021/05/17 05:51:18;;;;;;;4.22;2.65;;;;;;;17.16;56.79;98847.13;5010161;28;20052;-67
2021/05/17 05:53:44;;;;;;;6.05;3.25;;;;;;;17.34;54.31;98849.22;4992765;28;20076;-71
2021/05/17 05:56:10;;;;;;;4.05;2.08;;;;;;;17.44;52.75;98854.13;5010225;28;20042;-73
2021/05/17 05:58:36;;;;;;;2.85;2.42;;;;;;;17.67;52.46;98858.66;5011631;28;20033;-73
2021/05/17 06:01:02;;;;;;;5.78;2.22;;;;;;;17.89;52.53;98855.91;5014447;28;20415;-74
2021/05/17 06:03:27;;;;;;;2.40;2.20;;;;;;;18.03;51.21;98864.47;5014354;28;20076;-75
2021/05/17 06:05:52;;;;;;;2.67;2.47;;;;;;;18.12;50.76;98857.63;5014317;28;20091;-70
2021/05/17 06:08:18;;;;;;;3.35;2.70;;;;;;;18.31;50.93;98856.44;5014264;28;20526;-69
2021/05/17 06:10:44;;;;;;;6.13;3.00;;;;;;;18.56;50.93;98859.25;4996740;28;20028;-71
2021/05/17 06:13:09;;;;;;;4.53;2.83;;;;;;;18.65;51.08;98856.84;5014270;28;20105;-72
2021/05/17 06:15:36;;;;;;;8.25;2.38;;;;;;;18.77;50.46;98852.78;5014019;28;20057;-71
2021/05/17 06:18:02;;;;;;;4.70;2.67;;;;;;;18.89;48.95;98848.72;5014286;28;20132;-69
2021/05/17 06:20:27;;;;;;;3.50;2.95;;;;;;;19.05;48.76;98845.47;5013985;28;20160;-73
2021/05/17 06:22:53;;;;;;;2.95;2.50;;;;;;;19.13;49.38;98843.44;4996717;28;20179;-70
2021/05/17 06:25:19;;;;;;;3.72;2.50;;;;;;;19.40;48.35;98845.00;5013828;28;20030;-74
2021/05/17 06:27:45;;;;;;;3.95;2.35;;;;;;;19.52;48.24;98840.88;5014021;28;20033;-75
2021/05/17 06:30:13;;;;;;;3.10;2.55;;;;;;;19.67;47.02;98845.28;4996298;28;20018;-75
2021/05/17 06:32:40;;;;;;;4.55;3.28;;;;;;;19.68;48.36;98829.88;5013899;28;20037;-71
2021/05/17 06:35:08;;;;;;;5.78;2.72;;;;;;;19.84;47.92;98829.38;5013723;28;20507;-69
2021/05/17 06:37:33;;;;;;;2.08;1.90;;;;;;;19.90;46.63;98824.88;5013623;28;20018;-69
2021/05/17 06:39:59;;;;;;;5.93;2.90;;;;;;;20.11;48.50;98806.13;4996352;28;20060;-69
2021/05/17 06:42:25;;;;;;;3.63;2.30;;;;;;;19.88;46.56;98806.66;5014074;28;20038;-75
2021/05/17 06:44:50;;;;;;;3.78;2.67;;;;;;;19.70;47.13;98801.06;5013703;28;20065;-76
2021/05/17 06:47:17;;;;;;;7.18;3.08;;;;;;;19.81;48.43;98806.72;4995996;28;20530;-71
2021/05/17 06:49:43;;;;;;;5.20;3.10;;;;;;;20.04;48.40;98804.16;5013749;28;20108;-71
2021/05/17 06:52:12;;;;;;;11.80;2.75;;;;;;;20.15;48.11;98794.72;5013868;28;20113;-73
2021/05/17 06:54:39;;;;;;;5.10;2.80;;;;;;;20.24;47.27;98792.22;5013344;28;20092;-74
2021/05/17 06:57:18;;;;;;;5.35;3.30;;;;;;;20.32;47.50;98796.63;5013705;28;20034;-74
2021/05/17 06:59:46;;;;;;;3.90;2.25;;;;;;;20.55;47.48;98789.56;5013245;28;20029;-71
2021/05/17 07:02:20;;;;;;;10.23;3.22;;;;;;;20.62;47.98;98795.16;5013847;28;20448;-74
2021/05/17 07:04:47;;;;;;;2.72;2.53;;;;;;;20.66;47.27;98795.13;4996096;28;20033;-75
2021/05/17 07:07:15;;;;;;;15.63;3.22;;;;;;;20.40;46.92;98799.44;4995483;28;20032;-75
2021/05/17 07:12:25;;;;;;;6.75;2.80;;;;;;;20.40;47.11;98788.88;5013528;28;20172;-71
2021/05/17 07:14:50;;;;;;;5.13;2.80;;;;;;;20.52;47.26;98783.91;5013071;28;20022;-75
2021/05/17 07:17:16;;;;;;;7.13;2.40;;;;;;;20.70;46.28;98773.19;5012842;28;20053;-74
2021/05/17 07:19:44;;;;;;;4.97;3.00;;;;;;;20.73;46.77;98778.00;5013242;28;20046;-75
2021/05/17 07:24:53;;;;;;;8.82;2.70;;;;;;;20.96;45.92;98789.97;5013246;28;20073;-69
2021/05/17 07:27:19;;;;;;;2.53;2.30;;;;;;;21.01;46.63;98783.84;5012672;28;20022;-75
2021/05/17 07:29:45;;;;;;;4.43;1.92;;;;;;;20.93;45.26;98770.94;4995652;28;20484;-72
2021/05/17 07:32:11;;;;;;;2.38;2.15;;;;;;;20.94;44.90;98769.72;5012942;28;20026;-71
2021/05/17 07:34:45;;;;;;;2.85;1.92;;;;;;;21.00;45.02;98773.72;5012808;28;20038;-75
2021/05/17 07:37:10;;;;;;;5.03;2.85;;;;;;;21.29;46.75;98759.94;4994979;28;20034;-72
2021/05/17 07:39:36;;;;;;;2.40;2.20;;;;;;;21.71;43.63;98767.56;4995108;28;20045;-75
2021/05/17 07:42:03;;;;;;;5.05;2.55;;;;;;;21.74;44.69;98749.63;4995129;28;20029;-76
2021/05/17 07:44:30;;;;;;;2.97;2.33;;;;;;;21.70;44.39;98749.66;4994783;28;20494;-74
2021/05/17 07:46:56;;;;;;;2.85;2.33;;;;;;;21.58;41.41;98733.13;5012927;28;20088;-73
2021/05/17 07:49:33;;;;;;;7.40;1.85;;;;;;;21.94;41.00;98729.78;4994363;28;20026;-75
2021/05/17 07:51:59;;;;;;;2.92;2.10;;;;;;;21.95;40.13;98734.25;5003988;28;20072;-75
2021/05/17 07:54:25;;;;;;;4.75;2.10;;;;;;;22.05;41.67;98738.16;4994719;28;20034;-76
2021/05/17 07:56:51;;;;;;;2.85;2.08;;;;;;;22.01;40.25;98740.25;5012085;28;20414;-76
2021/05/17 07:59:16;;;;;;;5.95;2.10;;;;;;;21.97;41.96;98737.47;5012152;28;20036;-76
2021/05/17 08:01:42;;;;;;;2.47;2.28;;;;;;;21.89;43.39;98741.66;5012361;28;20032;-76
2021/05/17 08:04:10;;;;;;;4.47;2.20;;;;;;;21.86;41.70;98742.53;5012284;28;20112;-69
2021/05/17 08:06:36;;;;;;;3.42;1.95;;;;;;;22.04;40.11;98735.75;5012238;28;20369;-70
2021/05/17 08:09:03;;;;;;;4.50;2.20;;;;;;;21.98;42.29;98743.97;5012183;28;20045;-72
2021/05/17 08:11:29;;;;;;;2.55;2.35;;;;;;;21.87;42.27;98747.00;4994606;28;20120;-72
2021/05/17 08:13:54;;;;;;;2.45;2.17;;;;;;;21.98;42.00;98752.50;5011896;28;20034;-71
2021/05/17 08:16:22;;;;;;;7.47;2.08;;;;;;;21.81;42.14;98751.53;5011906;28;20053;-70
2021/05/17 08:18:48;;;;;;;3.70;2.30;;;;;;;21.69;42.47;98742.34;4994245;28;20029;-69
2021/05/17 08:21:14;;;;;;;6.15;2.33;;;;;;;21.45;44.41;98742.25;5011703;28;20412;-70
2021/05/17 08:23:39;;;;;;;3.00;2.00;;;;;;;21.40;45.52;98750.47;4993235;28;20029;-76
2021/05/17 08:26:07;;;;;;;2.40;2.13;;;;;;;21.53;44.05;98728.72;5011916;28;20511;-69
2021/05/17 08:28:34;;;;;;;3.88;2.05;;;;;;;21.31;47.26;98728.22;5011752;28;20036;-75
2021/05/17 08:31:00;;;;;;;3.33;2.08;;;;;;;21.37;46.10;98722.88;4993377;28;20476;-75
2021/05/17 08:33:25;;;;;;;2.40;2.20;;;;;;;21.32;45.95;98715.63;4986983;28;20030;-70
2021/05/17 08:35:51;;;;;;;8.13;2.83;;;;;;;21.44;45.64;98728.47;5011399;28;20484;-75
2021/05/17 08:38:17;;;;;;;28.67;4.10;;;;;;;21.47;45.16;98719.09;4993858;28;20030;-75
2021/05/17 08:40:44;;;;;;;4.45;2.45;;;;;;;21.69;46.26;98719.59;5011456;28;20057;-73
2021/05/17 08:43:10;;;;;;;14.63;3.50;;;;;;;21.80;45.56;98710.09;5011046;28;20393;-69
2021/05/17 08:45:36;;;;;;;6.82;2.92;;;;;;;21.84;45.76;98719.38;4993045;28;20037;-75
2021/05/17 08:48:02;;;;;;;2.70;2.50;;;;;;;21.84;46.16;98713.69;5010097;28;20065;-75
2021/05/17 08:50:28;;;;;;;3.10;2.75;;;;;;;21.78;46.13;98712.56;5009959;28;20030;-75
2021/05/17 08:52:54;;;;;;;9.27;2.78;;;;;;;21.73;46.15;98708.97;4992027;28;20120;-69
2021/05/17 08:55:20;;;;;;;3.88;2.80;;;;;;;21.83;45.99;98709.22;4992020;28;20014;-69
2021/05/17 08:57:47;;;;;;;4.07;2.50;;;;;;;21.84;45.59;98705.13;5009615;28;20113;-68
2021/05/17 09:00:17;;;;;;;5.80;2.70;;;;;;;21.69;45.99;98705.38;5009808;28;20029;-72
2021/05/17 09:02:43;;;;;;;3.75;2.60;;;;;;;21.72;45.31;98701.69;5011233;28;20423;-72
2021/05/17 09:05:18;;;;;;;3.25;2.80;;;;;;;21.77;45.62;98696.72;4993195;28;20029;-69
2021/05/17 09:07:46;;;;;;;3.00;2.72;;;;;;;21.81;44.36;98698.28;5011061;28;20524;-69
2021/05/17 09:10:15;;;;;;;4.72;2.60;;;;;;;21.69;44.83;98710.28;4993175;28;20092;-70
2021/05/17 09:13:01;;;;;;;3.08;2.78;;;;;;;21.72;44.83;98701.69;5011060;28;20042;-73
2021/05/17 09:15:29;;;;;;;6.22;2.53;;;;;;;21.66;47.51;98694.84;5010720;28;20387;-71
2021/05/17 09:17:59;;;;;;;9.85;3.40;;;;;;;21.72;48.81;98698.03;5010703;28;20058;-70
2021/05/17 09:20:34;;;;;;;3.33;3.03;;;;;;;21.82;47.59;98687.69;5010734;28;20026;-76
2021/05/17 09:23:13;;;;;;;9.20;2.90;;;;;;;21.94;47.63;98689.94;5003936;28;20034;-74
2021/05/17 09:25:54;;;;;;;6.10;2.87;;;;;;;22.13;46.36;98696.16;4982523;28;20033;-78
2021/05/17 09:28:26;;;;;;;4.30;2.30;;;;;;;22.08;47.20;98697.44;5010031;28;20034;-69
2021/05/17 09:30:55;;;;;;;5.47;2.47;;;;;;;21.94;47.24;98692.78;4983817;28;20065;-77
2021/05/17 09:33:22;;;;;;;7.93;2.90;;;;;;;22.19;46.63;98690.75;4988662;28;20197;-76
2021/05/17 09:35:49;;;;;;;7.20;3.33;;;;;;;22.35;45.10;98684.38;5008708;28;20041;-74
2021/05/17 09:38:25;;;;;;;5.18;2.58;;;;;;;22.25;46.56;98669.88;5008482;28;20026;-75
2021/05/17 09:41:07;;;;;;;4.22;2.20;;;;;;;22.31;47.87;98675.91;5009116;28;20068;-74
2021/05/17 09:43:34;;;;;;;2.45;2.10;;;;;;;22.32;47.45;98673.84;5010282;28;20127;-69
2021/05/17 09:46:02;;;;;;;4.40;2.63;;;;;;;22.35;46.50;98681.53;4992630;28;20026;-69
2021/05/17 09:48:30;;;;;;;6.38;2.30;;;;;;;22.48;46.78;98671.13;5010504;28;20057;-70
2021/05/17 09:51:08;;;;;;;3.55;2.60;;;;;;;22.94;42.92;98670.66;4992619;28;20030;-75
2021/05/17 09:53:47;;;;;;;6.55;2.47;;;;;;;22.78;42.15;98669.31;5010658;28;20932;-75
2021/05/17 09:56:19;;;;;;;3.92;2.20;;;;;;;22.94;42.44;98659.25;5010173;28;20057;-70
2021/05/17 09:58:47;;;;;;;32.47;3.92;;;;;;;22.88;44.99;98656.09;5010535;28;20038;-71
2021/05/17 10:01:21;;;;;;;3.92;2.17;;;;;;;22.88;43.44;98656.09;4992637;28;20111;-70
2021/05/17 10:03:49;;;;;;;2.38;2.17;;;;;;;22.74;44.11;98653.53;4996884;28;20034;-75
2021/05/17 10:06:20;;;;;;;3.83;2.38;;;;;;;22.86;43.97;98652.88;5009410;28;20034;-75
2021/05/17 10:08:47;;;;;;;5.93;2.30;;;;;;;22.95;41.86;98643.75;5010104;28;20117;-71
2021/05/17 10:11:13;;;;;;;6.00;2.30;;;;;;;22.73;44.60;98638.50;5010700;28;20030;-71
2021/05/17 10:13:39;;;;;;;3.17;2.20;;;;;;;22.60;44.59;98638.31;5009044;28;20464;-72
2021/05/17 10:16:09;;;;;;;2.15;2.00;;;;;;;22.71;43.81;98646.69;5010105;28;20061;-71
2021/05/17 10:18:37;;;;;;;3.58;2.53;;;;;;;22.85;42.19;98646.38;5010148;28;20026;-71
2021/05/17 10:21:06;;;;;;;2.72;2.28;;;;;;;22.66;41.94;98645.13;5010451;28;20088;-71
2021/05/17 10:23:32;;;;;;;3.38;2.30;;;;;;;22.84;41.16;98649.66;5010104;28;20029;-71
2021/05/17 10:26:08;;;;;;;2.35;2.15;;;;;;;22.84;42.96;98635.41;5010286;28;20081;-75
2021/05/17 10:28:35;;;;;;;4.50;2.65;;;;;;;22.75;43.30;98636.00;5010286;28;20037;-75
2021/05/17 10:31:13;;;;;;;2.45;2.22;;;;;;;22.65;43.20;98632.13;4992448;28;20468;-76
2021/05/17 10:33:42;;;;;;;7.90;2.35;;;;;;;22.70;41.87;98634.47;5008944;28;20045;-75
2021/05/17 10:36:08;;;;;;;5.82;2.10;;;;;;;22.70;41.60;98630.81;5008379;28;20396;-78
2021/05/17 10:38:45;;;;;;;2.10;1.90;;;;;;;22.49;42.43;98637.72;4992432;28;20030;-78
2021/05/17 10:41:11;;;;;;;2.70;2.10;;;;;;;22.52;43.23;98651.13;5008022;28;20034;-72
2021/05/17 10:44:02;;;;;;;7.00;2.58;;;;;;;22.52;42.66;98648.28;5009875;28;20041;-73
2021/05/17 10:46:38;;;;;;;2.05;1.85;;;;;;;22.45;41.63;98649.19;5010906;28;20113;-75
2021/05/17 10:49:28;;;;;;;3.28;2.97;;;;;;;22.48;42.61;98654.03;5008559;28;20419;-75
2021/05/17 10:51:57;;;;;;;3.33;2.45;;;;;;;22.51;41.83;98650.31;5004386;28;20030;-74
2021/05/17 10:54:25;;;;;;;4.65;2.22;;;;;;;22.69;40.99;98669.13;4995702;28;20500;-72
2021/05/17 11:02:32;;;;;;;2.70;1.70;;;;;;;22.52;41.15;98651.91;5003566;28;20044;-76
2021/05/17 11:05:16;;;;;;;3.88;1.50;;;;;;;22.54;41.29;98655.13;4995417;28;20435;-75
2021/05/17 11:08:08;;;;;;;7.75;1.83;;;;;;;22.47;42.36;98660.13;4995767;28;20041;-72
2021/05/17 11:10:35;;;;;;;7.18;2.60;;;;;;;22.45;41.83;98657.75;4971781;28;20443;-69
2021/05/17 11:13:20;;;;;;;4.70;1.65;;;;;;;22.38;41.72;98666.41;5013290;28;20487;-68
2021/05/17 11:15:51;;;;;;;5.65;1.77;;;;;;;22.37;42.88;98667.66;5000142;28;20033;-71
2021/05/17 11:18:17;;;;;;;4.68;1.95;;;;;;;22.50;43.06;98659.28;5012940;28;20060;-75
2021/05/17 11:20:45;;;;;;;3.58;1.90;;;;;;;22.46;42.83;98667.88;4995288;28;20029;-71
2021/05/17 11:23:22;;;;;;;31.35;3.95;;;;;;;22.38;44.06;98669.25;5013017;28;20034;-76
2021/05/17 11:28:34;;;;;;;9.25;2.60;;;;;;;21.95;46.68;98676.53;5013044;28;20033;-69
2021/05/17 11:31:44;;;;;;;11.02;2.90;;;;;;;21.86;47.30;98671.38;4997998;28;20026;-70
2021/05/17 11:34:06;;;;;;;15.55;3.38;;;;;;;21.82;47.19;98679.97;5011281;28;20506;-69
2021/05/17 11:36:42;;;;;;;5.22;3.95;;;;;;;21.83;46.44;98675.06;5012974;28;20057;-69
2021/05/17 11:39:08;;;;;;;8.18;3.22;;;;;;;21.77;46.48;98682.50;4995083;28;20029;-70
2021/05/17 11:41:58;;;;;;;12.40;3.80;;;;;;;21.59;47.03;98689.22;5012952;28;20468;-69
2021/05/17 11:47:26;;;;;;;8.23;2.90;;;;;;;21.60;47.21;98691.66;5012900;28;20042;-71
2021/05/17 11:49:53;;;;;;;4.22;3.28;;;;;;;21.69;46.94;98693.19;5012418;28;20030;-71
2021/05/17 11:52:27;;;;;;;3.70;3.00;;;;;;;21.76;47.29;98690.22;5012967;28;20419;-72
2021/05/17 11:54:56;;;;;;;4.28;3.22;;;;;;;21.75;47.72;98688.63;4998436;28;20057;-72
2021/05/17 11:57:28;;;;;;;7.10;2.80;;;;;;;21.78;48.96;98687.78;5012030;28;20034;-72
2021/05/17 11:59:54;;;;;;;3.15;2.75;;;;;;;21.95;49.51;98679.38;5011954;28;20088;-71
2021/05/17 12:02:19;;;;;;;3.83;3.20;;;;;;;21.86;49.38;98685.63;4993092;28;20112;-72